sensor_id;sensor_type;location;lat;lon;timestamp;temperature;humidity
73112;HTU21D;61301;51.956;5.876;2023-06-14T00:02:10;24.68;26.97
73112;HTU21D;61301;51.956;5.876;2023-06-14T00:04:36;24.60;27.14
73112;HTU21D;61301;51.956;5.876;2023-06-14T00:07:05;24.51;27.44
73112;HTU21D;61301;51.956;5.876;2023-06-14T00:09:34;24.50;27.57
73112;HTU21D;61301;51.956;5.876;2023-06-14T00:12:00;24.41;27.58
73112;HTU21D;61301;51.956;5.876;2023-06-14T00:14:26;24.39;27.65
73112;HTU21D;61301;51.956;5.876;2023-06-14T00:16:51;24.38;27.66
73112;HTU21D;61301;51.956;5.876;2023-06-14T00:19:25;24.36;27.65
73112;HTU21D;61301;51.956;5.876;2023-06-14T00:21:51;24.38;27.79
73112;HTU21D;61301;51.956;5.876;2023-06-14T00:24:19;24.39;27.96
73112;HTU21D;61301;51.956;5.876;2023-06-14T00:26:45;24.30;28.12
73112;HTU21D;61301;51.956;5.876;2023-06-14T00:29:11;24.27;28.19
73112;HTU21D;61301;51.956;5.876;2023-06-14T00:31:37;24.25;28.02
73112;HTU21D;61301;51.956;5.876;2023-06-14T00:34:03;24.21;28.24
73112;HTU21D;61301;51.956;5.876;2023-06-14T00:36:29;24.18;28.33
73112;HTU21D;61301;51.956;5.876;2023-06-14T00:38:55;24.18;28.36
73112;HTU21D;61301;51.956;5.876;2023-06-14T00:41:22;24.13;28.52
73112;HTU21D;61301;51.956;5.876;2023-06-14T00:43:47;24.10;28.54
73112;HTU21D;61301;51.956;5.876;2023-06-14T00:46:14;24.06;28.74
73112;HTU21D;61301;51.956;5.876;2023-06-14T00:48:40;24.06;28.71
73112;HTU21D;61301;51.956;5.876;2023-06-14T00:51:07;24.00;28.92
73112;HTU21D;61301;51.956;5.876;2023-06-14T00:53:33;23.97;29.11
73112;HTU21D;61301;51.956;5.876;2023-06-14T00:56:05;23.92;28.97
73112;HTU21D;61301;51.956;5.876;2023-06-14T00:58:32;23.88;29.31
73112;HTU21D;61301;51.956;5.876;2023-06-14T01:01:01;23.87;29.29
73112;HTU21D;61301;51.956;5.876;2023-06-14T01:03:27;23.85;29.47
73112;HTU21D;61301;51.956;5.876;2023-06-14T01:08:57;23.71;29.81
73112;HTU21D;61301;51.956;5.876;2023-06-14T01:11:39;23.68;29.91
73112;HTU21D;61301;51.956;5.876;2023-06-14T01:14:07;23.62;29.90
73112;HTU21D;61301;51.956;5.876;2023-06-14T01:16:34;23.61;29.79
73112;HTU21D;61301;51.956;5.876;2023-06-14T01:19:02;23.61;30.00
73112;HTU21D;61301;51.956;5.876;2023-06-14T01:21:29;23.62;30.09
73112;HTU21D;61301;51.956;5.876;2023-06-14T01:23:55;23.53;30.26
73112;HTU21D;61301;51.956;5.876;2023-06-14T01:26:22;23.51;30.22
73112;HTU21D;61301;51.956;5.876;2023-06-14T01:28:49;23.52;30.24
73112;HTU21D;61301;51.956;5.876;2023-06-14T01:31:19;23.51;30.24
73112;HTU21D;61301;51.956;5.876;2023-06-14T01:33:49;23.46;30.44
73112;HTU21D;61301;51.956;5.876;2023-06-14T01:36:19;23.41;30.52
73112;HTU21D;61301;51.956;5.876;2023-06-14T01:38:46;23.37;30.68
73112;HTU21D;61301;51.956;5.876;2023-06-14T01:41:14;23.34;30.62
73112;HTU21D;61301;51.956;5.876;2023-06-14T01:43:41;23.34;30.66
73112;HTU21D;61301;51.956;5.876;2023-06-14T01:46:08;23.32;30.83
73112;HTU21D;61301;51.956;5.876;2023-06-14T01:48:35;23.29;31.06
73112;HTU21D;61301;51.956;5.876;2023-06-14T01:51:03;23.27;30.96
73112;HTU21D;61301;51.956;5.876;2023-06-14T01:53:29;23.27;31.03
73112;HTU21D;61301;51.956;5.876;2023-06-14T01:55:55;23.20;31.16
73112;HTU21D;61301;51.956;5.876;2023-06-14T01:58:21;23.13;31.25
73112;HTU21D;61301;51.956;5.876;2023-06-14T02:00:48;23.13;31.35
73112;HTU21D;61301;51.956;5.876;2023-06-14T02:03:14;23.06;31.62
73112;HTU21D;61301;51.956;5.876;2023-06-14T02:05:41;23.00;31.61
73112;HTU21D;61301;51.956;5.876;2023-06-14T02:08:07;22.99;31.61
73112;HTU21D;61301;51.956;5.876;2023-06-14T02:10:33;22.96;31.92
73112;HTU21D;61301;51.956;5.876;2023-06-14T02:12:59;22.91;31.92
73112;HTU21D;61301;51.956;5.876;2023-06-14T02:15:26;22.90;31.92
73112;HTU21D;61301;51.956;5.876;2023-06-14T02:17:53;22.85;32.01
73112;HTU21D;61301;51.956;5.876;2023-06-14T02:20:19;22.87;31.87
73112;HTU21D;61301;51.956;5.876;2023-06-14T02:22:45;22.87;31.94
73112;HTU21D;61301;51.956;5.876;2023-06-14T02:25:11;22.87;31.84
73112;HTU21D;61301;51.956;5.876;2023-06-14T02:27:40;22.86;31.89
73112;HTU21D;61301;51.956;5.876;2023-06-14T02:30:06;22.91;32.03
73112;HTU21D;61301;51.956;5.876;2023-06-14T02:32:33;22.83;32.12
73112;HTU21D;61301;51.956;5.876;2023-06-14T02:35:02;22.81;32.16
73112;HTU21D;61301;51.956;5.876;2023-06-14T02:37:29;22.77;32.38
73112;HTU21D;61301;51.956;5.876;2023-06-14T02:39:55;22.72;32.53
73112;HTU21D;61301;51.956;5.876;2023-06-14T02:42:23;22.69;32.58
73112;HTU21D;61301;51.956;5.876;2023-06-14T02:44:49;22.66;32.60
73112;HTU21D;61301;51.956;5.876;2023-06-14T02:47:17;22.62;32.79
73112;HTU21D;61301;51.956;5.876;2023-06-14T02:49:44;22.57;32.90
73112;HTU21D;61301;51.956;5.876;2023-06-14T02:52:14;22.53;33.03
73112;HTU21D;61301;51.956;5.876;2023-06-14T02:54:40;22.50;33.07
73112;HTU21D;61301;51.956;5.876;2023-06-14T02:57:08;22.48;33.03
73112;HTU21D;61301;51.956;5.876;2023-06-14T02:59:34;22.49;33.03
73112;HTU21D;61301;51.956;5.876;2023-06-14T03:02:02;22.47;33.13
73112;HTU21D;61301;51.956;5.876;2023-06-14T03:04:30;22.43;33.38
73112;HTU21D;61301;51.956;5.876;2023-06-14T03:07:02;22.41;33.24
73112;HTU21D;61301;51.956;5.876;2023-06-14T03:09:29;22.41;33.22
73112;HTU21D;61301;51.956;5.876;2023-06-14T03:11:55;22.40;33.34
73112;HTU21D;61301;51.956;5.876;2023-06-14T03:14:21;22.39;33.41
73112;HTU21D;61301;51.956;5.876;2023-06-14T03:16:48;22.35;33.72
73112;HTU21D;61301;51.956;5.876;2023-06-14T03:19:16;22.35;33.49
73112;HTU21D;61301;51.956;5.876;2023-06-14T03:21:42;22.32;33.63
73112;HTU21D;61301;51.956;5.876;2023-06-14T03:24:10;22.29;33.67
73112;HTU21D;61301;51.956;5.876;2023-06-14T03:26:37;22.29;33.75
73112;HTU21D;61301;51.956;5.876;2023-06-14T03:29:03;22.26;33.80
73112;HTU21D;61301;51.956;5.876;2023-06-14T03:31:30;22.21;34.15
73112;HTU21D;61301;51.956;5.876;2023-06-14T03:33:59;22.19;34.16
73112;HTU21D;61301;51.956;5.876;2023-06-14T03:36:26;22.11;34.30
73112;HTU21D;61301;51.956;5.876;2023-06-14T03:38:54;22.07;34.49
73112;HTU21D;61301;51.956;5.876;2023-06-14T03:41:21;22.04;34.41
73112;HTU21D;61301;51.956;5.876;2023-06-14T03:43:48;22.04;34.54
73112;HTU21D;61301;51.956;5.876;2023-06-14T03:46:14;22.02;34.54
73112;HTU21D;61301;51.956;5.876;2023-06-14T03:48:40;22.01;34.79
73112;HTU21D;61301;51.956;5.876;2023-06-14T03:51:07;21.98;34.86
73112;HTU21D;61301;51.956;5.876;2023-06-14T03:53:33;21.93;34.95
73112;HTU21D;61301;51.956;5.876;2023-06-14T03:56:02;21.91;35.03
73112;HTU21D;61301;51.956;5.876;2023-06-14T03:58:37;21.87;35.18
73112;HTU21D;61301;51.956;5.876;2023-06-14T04:01:04;21.84;35.45
73112;HTU21D;61301;51.956;5.876;2023-06-14T04:03:31;21.81;35.34
73112;HTU21D;61301;51.956;5.876;2023-06-14T04:05:59;21.73;35.73
73112;HTU21D;61301;51.956;5.876;2023-06-14T04:08:25;21.69;35.87
73112;HTU21D;61301;51.956;5.876;2023-06-14T04:10:51;21.72;35.90
73112;HTU21D;61301;51.956;5.876;2023-06-14T04:13:17;21.66;36.07
73112;HTU21D;61301;51.956;5.876;2023-06-14T04:15:44;21.63;36.18
73112;HTU21D;61301;51.956;5.876;2023-06-14T04:18:15;21.64;36.14
73112;HTU21D;61301;51.956;5.876;2023-06-14T04:20:41;21.64;36.26
73112;HTU21D;61301;51.956;5.876;2023-06-14T04:23:16;21.69;36.17
73112;HTU21D;61301;51.956;5.876;2023-06-14T04:25:44;21.74;36.05
73112;HTU21D;61301;51.956;5.876;2023-06-14T04:28:14;21.75;36.14
73112;HTU21D;61301;51.956;5.876;2023-06-14T04:30:44;21.77;36.09
73112;HTU21D;61301;51.956;5.876;2023-06-14T04:33:11;21.75;36.26
73112;HTU21D;61301;51.956;5.876;2023-06-14T04:35:37;21.76;36.26
73112;HTU21D;61301;51.956;5.876;2023-06-14T04:38:03;21.77;36.28
73112;HTU21D;61301;51.956;5.876;2023-06-14T04:40:36;21.75;36.41
73112;HTU21D;61301;51.956;5.876;2023-06-14T04:43:14;21.75;36.50
73112;HTU21D;61301;51.956;5.876;2023-06-14T04:45:43;21.76;36.48
73112;HTU21D;61301;51.956;5.876;2023-06-14T04:48:12;21.75;36.62
73112;HTU21D;61301;51.956;5.876;2023-06-14T04:50:38;21.75;36.58
73112;HTU21D;61301;51.956;5.876;2023-06-14T04:53:06;21.74;36.69
73112;HTU21D;61301;51.956;5.876;2023-06-14T04:55:33;21.76;36.77
73112;HTU21D;61301;51.956;5.876;2023-06-14T04:58:01;21.78;36.77
73112;HTU21D;61301;51.956;5.876;2023-06-14T05:00:28;21.80;36.70
73112;HTU21D;61301;51.956;5.876;2023-06-14T05:02:54;21.89;36.81
73112;HTU21D;61301;51.956;5.876;2023-06-14T05:05:21;21.85;36.87
73112;HTU21D;61301;51.956;5.876;2023-06-14T05:07:48;21.91;36.83
73112;HTU21D;61301;51.956;5.876;2023-06-14T05:10:15;21.89;36.92
73112;HTU21D;61301;51.956;5.876;2023-06-14T05:12:41;22.02;36.67
73112;HTU21D;61301;51.956;5.876;2023-06-14T05:15:10;22.03;36.67
73112;HTU21D;61301;51.956;5.876;2023-06-14T05:17:36;22.01;36.78
73112;HTU21D;61301;51.956;5.876;2023-06-14T05:20:02;22.03;36.79
73112;HTU21D;61301;51.956;5.876;2023-06-14T05:22:29;22.09;36.76
73112;HTU21D;61301;51.956;5.876;2023-06-14T05:24:55;22.09;36.82
73112;HTU21D;61301;51.956;5.876;2023-06-14T05:27:21;22.19;36.63
73112;HTU21D;61301;51.956;5.876;2023-06-14T05:29:47;22.29;36.56
73112;HTU21D;61301;51.956;5.876;2023-06-14T05:32:13;22.29;36.48
73112;HTU21D;61301;51.956;5.876;2023-06-14T05:34:40;22.37;36.45
73112;HTU21D;61301;51.956;5.876;2023-06-14T05:37:06;22.43;36.37
73112;HTU21D;61301;51.956;5.876;2023-06-14T05:39:32;22.48;36.37
73112;HTU21D;61301;51.956;5.876;2023-06-14T05:41:58;22.56;36.24
73112;HTU21D;61301;51.956;5.876;2023-06-14T05:44:24;22.62;36.20
73112;HTU21D;61301;51.956;5.876;2023-06-14T05:46:50;22.67;36.20
73112;HTU21D;61301;51.956;5.876;2023-06-14T05:49:16;22.70;36.02
73112;HTU21D;61301;51.956;5.876;2023-06-14T05:51:42;22.73;36.07
73112;HTU21D;61301;51.956;5.876;2023-06-14T05:54:08;22.86;35.96
73112;HTU21D;61301;51.956;5.876;2023-06-14T05:56:34;22.93;35.79
73112;HTU21D;61301;51.956;5.876;2023-06-14T05:59:00;22.99;35.76
73112;HTU21D;61301;51.956;5.876;2023-06-14T06:01:26;23.02;35.73
73112;HTU21D;61301;51.956;5.876;2023-06-14T06:03:52;23.06;35.85
73112;HTU21D;61301;51.956;5.876;2023-06-14T06:06:19;23.12;35.87
73112;HTU21D;61301;51.956;5.876;2023-06-14T06:08:45;23.18;35.60
73112;HTU21D;61301;51.956;5.876;2023-06-14T06:11:11;23.23;35.68
73112;HTU21D;61301;51.956;5.876;2023-06-14T06:13:37;23.26;35.65
73112;HTU21D;61301;51.956;5.876;2023-06-14T06:16:04;23.41;35.48
73112;HTU21D;61301;51.956;5.876;2023-06-14T06:18:30;23.46;35.43
73112;HTU21D;61301;51.956;5.876;2023-06-14T06:20:56;23.45;35.65
73112;HTU21D;61301;51.956;5.876;2023-06-14T06:23:22;23.47;35.50
73112;HTU21D;61301;51.956;5.876;2023-06-14T06:25:49;23.56;35.60
73112;HTU21D;61301;51.956;5.876;2023-06-14T06:28:15;23.69;35.48
73112;HTU21D;61301;51.956;5.876;2023-06-14T06:30:41;23.82;34.96
73112;HTU21D;61301;51.956;5.876;2023-06-14T06:33:07;23.95;34.86
73112;HTU21D;61301;51.956;5.876;2023-06-14T06:35:33;24.14;34.79
73112;HTU21D;61301;51.956;5.876;2023-06-14T06:37:59;24.27;34.58
73112;HTU21D;61301;51.956;5.876;2023-06-14T06:40:26;24.44;33.91
73112;HTU21D;61301;51.956;5.876;2023-06-14T06:42:52;24.43;33.34
73112;HTU21D;61301;51.956;5.876;2023-06-14T06:45:19;24.46;33.61
73112;HTU21D;61301;51.956;5.876;2023-06-14T06:47:45;24.54;33.34
73112;HTU21D;61301;51.956;5.876;2023-06-14T06:50:11;24.69;33.09
73112;HTU21D;61301;51.956;5.876;2023-06-14T06:52:38;24.78;32.73
73112;HTU21D;61301;51.956;5.876;2023-06-14T06:55:04;24.80;32.58
73112;HTU21D;61301;51.956;5.876;2023-06-14T06:57:30;24.78;32.65
73112;HTU21D;61301;51.956;5.876;2023-06-14T06:59:57;24.85;32.63
73112;HTU21D;61301;51.956;5.876;2023-06-14T07:02:23;25.01;32.60
73112;HTU21D;61301;51.956;5.876;2023-06-14T07:04:49;25.15;32.25
73112;HTU21D;61301;51.956;5.876;2023-06-14T07:07:15;25.23;32.36
73112;HTU21D;61301;51.956;5.876;2023-06-14T07:09:41;25.35;31.99
73112;HTU21D;61301;51.956;5.876;2023-06-14T07:12:10;25.38;31.54
73112;HTU21D;61301;51.956;5.876;2023-06-14T07:14:37;25.32;31.76
73112;HTU21D;61301;51.956;5.876;2023-06-14T07:17:03;25.38;31.72
73112;HTU21D;61301;51.956;5.876;2023-06-14T07:19:29;25.47;31.74
73112;HTU21D;61301;51.956;5.876;2023-06-14T07:21:56;25.54;31.46
73112;HTU21D;61301;51.956;5.876;2023-06-14T07:24:22;25.79;30.99
73112;HTU21D;61301;51.956;5.876;2023-06-14T07:26:48;25.82;30.80
73112;HTU21D;61301;51.956;5.876;2023-06-14T07:29:15;25.91;30.51
73112;HTU21D;61301;51.956;5.876;2023-06-14T07:31:42;26.02;30.25
73112;HTU21D;61301;51.956;5.876;2023-06-14T07:34:08;26.03;30.20
73112;HTU21D;61301;51.956;5.876;2023-06-14T07:36:34;26.06;29.89
73112;HTU21D;61301;51.956;5.876;2023-06-14T07:39:00;26.10;29.68
73112;HTU21D;61301;51.956;5.876;2023-06-14T07:41:29;26.06;29.45
73112;HTU21D;61301;51.956;5.876;2023-06-14T07:43:55;26.11;29.59
73112;HTU21D;61301;51.956;5.876;2023-06-14T07:46:21;26.24;29.19
73112;HTU21D;61301;51.956;5.876;2023-06-14T07:48:48;26.41;28.86
73112;HTU21D;61301;51.956;5.876;2023-06-14T07:51:14;26.50;28.77
73112;HTU21D;61301;51.956;5.876;2023-06-14T07:53:40;26.60;28.68
73112;HTU21D;61301;51.956;5.876;2023-06-14T07:56:07;26.73;28.55
73112;HTU21D;61301;51.956;5.876;2023-06-14T07:58:33;26.94;27.84
73112;HTU21D;61301;51.956;5.876;2023-06-14T08:00:59;27.06;27.39
73112;HTU21D;61301;51.956;5.876;2023-06-14T08:03:27;27.22;27.32
73112;HTU21D;61301;51.956;5.876;2023-06-14T08:05:53;27.36;26.11
73112;HTU21D;61301;51.956;5.876;2023-06-14T08:08:19;27.35;26.66
73112;HTU21D;61301;51.956;5.876;2023-06-14T08:10:45;27.42;26.89
73112;HTU21D;61301;51.956;5.876;2023-06-14T08:13:11;27.61;26.62
73112;HTU21D;61301;51.956;5.876;2023-06-14T08:15:37;27.76;25.61
73112;HTU21D;61301;51.956;5.876;2023-06-14T08:18:03;27.79;25.39
73112;HTU21D;61301;51.956;5.876;2023-06-14T08:20:29;27.96;25.07
73112;HTU21D;61301;51.956;5.876;2023-06-14T08:22:57;27.97;24.58
73112;HTU21D;61301;51.956;5.876;2023-06-14T08:25:24;27.95;24.53
73112;HTU21D;61301;51.956;5.876;2023-06-14T08:27:49;27.98;24.79
73112;HTU21D;61301;51.956;5.876;2023-06-14T08:30:16;27.89;25.20
73112;HTU21D;61301;51.956;5.876;2023-06-14T08:32:43;28.01;24.99
73112;HTU21D;61301;51.956;5.876;2023-06-14T08:35:09;28.13;25.43
73112;HTU21D;61301;51.956;5.876;2023-06-14T08:37:41;28.37;25.11
73112;HTU21D;61301;51.956;5.876;2023-06-14T08:40:28;28.54;24.67
73112;HTU21D;61301;51.956;5.876;2023-06-14T08:42:55;28.63;24.30
73112;HTU21D;61301;51.956;5.876;2023-06-14T08:45:22;28.48;24.47
73112;HTU21D;61301;51.956;5.876;2023-06-14T08:47:50;28.44;23.46
73112;HTU21D;61301;51.956;5.876;2023-06-14T08:50:26;28.47;23.09
73112;HTU21D;61301;51.956;5.876;2023-06-14T08:52:57;28.49;23.20
73112;HTU21D;61301;51.956;5.876;2023-06-14T08:55:27;28.60;23.41
73112;HTU21D;61301;51.956;5.876;2023-06-14T08:57:57;28.61;23.30
73112;HTU21D;61301;51.956;5.876;2023-06-14T09:00:28;28.53;23.75
73112;HTU21D;61301;51.956;5.876;2023-06-14T09:02:54;28.73;23.35
73112;HTU21D;61301;51.956;5.876;2023-06-14T09:05:24;28.95;23.55
73112;HTU21D;61301;51.956;5.876;2023-06-14T09:07:50;29.21;23.20
73112;HTU21D;61301;51.956;5.876;2023-06-14T09:10:16;29.45;22.76
73112;HTU21D;61301;51.956;5.876;2023-06-14T09:12:43;29.57;22.38
73112;HTU21D;61301;51.956;5.876;2023-06-14T09:15:09;29.75;22.24
73112;HTU21D;61301;51.956;5.876;2023-06-14T09:17:36;29.90;22.18
73112;HTU21D;61301;51.956;5.876;2023-06-14T09:20:04;29.97;22.11
73112;HTU21D;61301;51.956;5.876;2023-06-14T09:22:35;29.97;22.19
73112;HTU21D;61301;51.956;5.876;2023-06-14T09:25:01;29.95;22.20
73112;HTU21D;61301;51.956;5.876;2023-06-14T09:27:28;30.07;22.69
73112;HTU21D;61301;51.956;5.876;2023-06-14T09:29:55;30.19;22.60
73112;HTU21D;61301;51.956;5.876;2023-06-14T09:32:22;30.26;21.42
73112;HTU21D;61301;51.956;5.876;2023-06-14T09:34:48;30.26;20.95
73112;HTU21D;61301;51.956;5.876;2023-06-14T09:37:30;30.31;20.40
73112;HTU21D;61301;51.956;5.876;2023-06-14T09:39:57;30.28;20.67
73112;HTU21D;61301;51.956;5.876;2023-06-14T09:42:23;30.16;21.02
73112;HTU21D;61301;51.956;5.876;2023-06-14T09:44:52;30.06;21.18
73112;HTU21D;61301;51.956;5.876;2023-06-14T09:47:19;29.89;22.03
73112;HTU21D;61301;51.956;5.876;2023-06-14T09:49:46;30.03;21.93
73112;HTU21D;61301;51.956;5.876;2023-06-14T09:52:17;30.13;21.76
73112;HTU21D;61301;51.956;5.876;2023-06-14T09:54:45;30.33;21.17
73112;HTU21D;61301;51.956;5.876;2023-06-14T09:57:16;30.46;21.39
73112;HTU21D;61301;51.956;5.876;2023-06-14T09:59:45;30.40;21.88
73112;HTU21D;61301;51.956;5.876;2023-06-14T10:04:46;30.40;21.08
73112;HTU21D;61301;51.956;5.876;2023-06-14T10:07:19;30.24;20.61
73112;HTU21D;61301;51.956;5.876;2023-06-14T10:09:46;30.28;20.99
73112;HTU21D;61301;51.956;5.876;2023-06-14T10:12:18;30.59;20.76
73112;HTU21D;61301;51.956;5.876;2023-06-14T10:14:49;30.85;19.97
73112;HTU21D;61301;51.956;5.876;2023-06-14T10:17:39;30.98;19.55
73112;HTU21D;61301;51.956;5.876;2023-06-14T10:22:50;30.65;20.25
73112;HTU21D;61301;51.956;5.876;2023-06-14T10:25:30;30.45;20.63
73112;HTU21D;61301;51.956;5.876;2023-06-14T10:30:37;30.59;20.85
73112;HTU21D;61301;51.956;5.876;2023-06-14T10:33:05;30.61;20.78
73112;HTU21D;61301;51.956;5.876;2023-06-14T10:35:32;30.48;20.30
73112;HTU21D;61301;51.956;5.876;2023-06-14T10:38:07;30.33;20.51
73112;HTU21D;61301;51.956;5.876;2023-06-14T10:40:34;30.13;21.02
73112;HTU21D;61301;51.956;5.876;2023-06-14T10:43:00;30.27;21.08
73112;HTU21D;61301;51.956;5.876;2023-06-14T10:45:26;30.56;20.40
73112;HTU21D;61301;51.956;5.876;2023-06-14T10:47:52;30.71;20.49
73112;HTU21D;61301;51.956;5.876;2023-06-14T10:50:27;30.80;20.01
73112;HTU21D;61301;51.956;5.876;2023-06-14T10:52:55;30.71;19.60
73112;HTU21D;61301;51.956;5.876;2023-06-14T10:55:22;30.63;19.69
73112;HTU21D;61301;51.956;5.876;2023-06-14T10:57:50;30.69;19.98
73112;HTU21D;61301;51.956;5.876;2023-06-14T11:00:22;30.92;19.70
73112;HTU21D;61301;51.956;5.876;2023-06-14T11:05:57;31.02;19.47
73112;HTU21D;61301;51.956;5.876;2023-06-14T11:10:50;30.82;19.36
73112;HTU21D;61301;51.956;5.876;2023-06-14T11:13:16;30.70;19.61
73112;HTU21D;61301;51.956;5.876;2023-06-14T11:15:45;30.82;19.28
73112;HTU21D;61301;51.956;5.876;2023-06-14T11:18:13;30.83;19.42
73112;HTU21D;61301;51.956;5.876;2023-06-14T11:20:39;30.94;19.74
73112;HTU21D;61301;51.956;5.876;2023-06-14T11:23:06;31.27;19.54
73112;HTU21D;61301;51.956;5.876;2023-06-14T11:25:32;31.39;18.83
73112;HTU21D;61301;51.956;5.876;2023-06-14T11:27:58;31.25;19.11
73112;HTU21D;61301;51.956;5.876;2023-06-14T11:30:27;31.18;19.52
73112;HTU21D;61301;51.956;5.876;2023-06-14T11:32:54;31.05;19.80
73112;HTU21D;61301;51.956;5.876;2023-06-14T11:35:24;31.00;19.90
73112;HTU21D;61301;51.956;5.876;2023-06-14T11:37:55;31.10;19.60
73112;HTU21D;61301;51.956;5.876;2023-06-14T11:40:26;31.19;19.11
73112;HTU21D;61301;51.956;5.876;2023-06-14T11:43:00;31.24;18.52
73112;HTU21D;61301;51.956;5.876;2023-06-14T11:45:27;31.31;18.80
73112;HTU21D;61301;51.956;5.876;2023-06-14T11:47:57;31.21;18.86
73112;HTU21D;61301;51.956;5.876;2023-06-14T11:50:24;31.01;19.04
73112;HTU21D;61301;51.956;5.876;2023-06-14T11:52:54;31.19;19.42
73112;HTU21D;61301;51.956;5.876;2023-06-14T11:55:22;31.19;19.50
73112;HTU21D;61301;51.956;5.876;2023-06-14T11:57:48;31.24;19.69
73112;HTU21D;61301;51.956;5.876;2023-06-14T12:00:15;31.20;19.08
73112;HTU21D;61301;51.956;5.876;2023-06-14T12:02:41;31.08;19.29
73112;HTU21D;61301;51.956;5.876;2023-06-14T12:05:08;31.36;19.41
73112;HTU21D;61301;51.956;5.876;2023-06-14T12:07:38;31.66;19.15
73112;HTU21D;61301;51.956;5.876;2023-06-14T12:10:08;31.82;18.65
73112;HTU21D;61301;51.956;5.876;2023-06-14T12:12:37;32.04;18.19
73112;HTU21D;61301;51.956;5.876;2023-06-14T12:15:05;31.94;18.41
73112;HTU21D;61301;51.956;5.876;2023-06-14T12:17:33;31.96;18.32
73112;HTU21D;61301;51.956;5.876;2023-06-14T12:20:05;31.92;18.22
73112;HTU21D;61301;51.956;5.876;2023-06-14T12:22:34;31.72;18.83
73112;HTU21D;61301;51.956;5.876;2023-06-14T12:25:00;31.72;18.97
73112;HTU21D;61301;51.956;5.876;2023-06-14T12:27:26;31.86;19.20
73112;HTU21D;61301;51.956;5.876;2023-06-14T12:30:04;32.09;19.31
73112;HTU21D;61301;51.956;5.876;2023-06-14T12:32:33;32.37;18.94
73112;HTU21D;61301;51.956;5.876;2023-06-14T12:34:59;32.40;18.60
73112;HTU21D;61301;51.956;5.876;2023-06-14T12:37:25;32.30;18.73
73112;HTU21D;61301;51.956;5.876;2023-06-14T12:39:51;32.07;18.95
73112;HTU21D;61301;51.956;5.876;2023-06-14T12:42:17;31.83;19.38
73112;HTU21D;61301;51.956;5.876;2023-06-14T12:44:43;31.98;19.41
73112;HTU21D;61301;51.956;5.876;2023-06-14T12:47:09;31.94;19.51
73112;HTU21D;61301;51.956;5.876;2023-06-14T12:49:35;31.87;19.63
73112;HTU21D;61301;51.956;5.876;2023-06-14T12:52:01;32.02;19.67
73112;HTU21D;61301;51.956;5.876;2023-06-14T12:54:27;32.00;19.59
73112;HTU21D;61301;51.956;5.876;2023-06-14T12:56:56;32.04;19.73
73112;HTU21D;61301;51.956;5.876;2023-06-14T12:59:22;32.12;19.92
73112;HTU21D;61301;51.956;5.876;2023-06-14T13:01:48;32.20;19.34
73112;HTU21D;61301;51.956;5.876;2023-06-14T13:04:16;32.10;19.02
73112;HTU21D;61301;51.956;5.876;2023-06-14T13:06:45;31.85;20.15
73112;HTU21D;61301;51.956;5.876;2023-06-14T13:09:11;31.84;19.80
73112;HTU21D;61301;51.956;5.876;2023-06-14T13:11:38;31.88;20.02
73112;HTU21D;61301;51.956;5.876;2023-06-14T13:14:04;32.09;19.49
73112;HTU21D;61301;51.956;5.876;2023-06-14T13:16:31;32.01;19.44
73112;HTU21D;61301;51.956;5.876;2023-06-14T13:18:57;31.99;18.31
73112;HTU21D;61301;51.956;5.876;2023-06-14T13:21:31;31.73;18.74
73112;HTU21D;61301;51.956;5.876;2023-06-14T13:23:57;31.51;19.15
73112;HTU21D;61301;51.956;5.876;2023-06-14T13:26:23;31.82;19.15
73112;HTU21D;61301;51.956;5.876;2023-06-14T13:28:49;31.92;18.96
73112;HTU21D;61301;51.956;5.876;2023-06-14T13:31:17;32.00;17.96
73112;HTU21D;61301;51.956;5.876;2023-06-14T13:33:43;31.98;17.60
73112;HTU21D;61301;51.956;5.876;2023-06-14T13:36:09;32.12;17.92
73112;HTU21D;61301;51.956;5.876;2023-06-14T13:38:35;32.47;17.72
73112;HTU21D;61301;51.956;5.876;2023-06-14T13:41:01;32.66;17.77
73112;HTU21D;61301;51.956;5.876;2023-06-14T13:43:27;32.97;17.23
73112;HTU21D;61301;51.956;5.876;2023-06-14T13:45:54;32.99;16.66
73112;HTU21D;61301;51.956;5.876;2023-06-14T13:48:20;32.53;17.46
73112;HTU21D;61301;51.956;5.876;2023-06-14T13:50:46;32.38;17.35
73112;HTU21D;61301;51.956;5.876;2023-06-14T13:53:12;32.45;17.65
73112;HTU21D;61301;51.956;5.876;2023-06-14T13:55:38;32.31;17.75
73112;HTU21D;61301;51.956;5.876;2023-06-14T13:58:04;32.09;16.99
73112;HTU21D;61301;51.956;5.876;2023-06-14T14:00:30;32.11;16.98
73112;HTU21D;61301;51.956;5.876;2023-06-14T14:02:56;32.29;17.13
73112;HTU21D;61301;51.956;5.876;2023-06-14T14:05:23;32.30;17.49
73112;HTU21D;61301;51.956;5.876;2023-06-14T14:07:57;32.32;17.61
73112;HTU21D;61301;51.956;5.876;2023-06-14T14:10:24;32.26;18.15
73112;HTU21D;61301;51.956;5.876;2023-06-14T14:12:51;32.26;18.34
73112;HTU21D;61301;51.956;5.876;2023-06-14T14:15:18;32.14;18.48
73112;HTU21D;61301;51.956;5.876;2023-06-14T14:17:44;32.14;18.21
73112;HTU21D;61301;51.956;5.876;2023-06-14T14:20:10;32.18;17.67
73112;HTU21D;61301;51.956;5.876;2023-06-14T14:22:42;32.17;18.09
73112;HTU21D;61301;51.956;5.876;2023-06-14T14:25:09;32.27;17.96
73112;HTU21D;61301;51.956;5.876;2023-06-14T14:27:35;32.24;18.17
73112;HTU21D;61301;51.956;5.876;2023-06-14T14:30:05;32.17;18.11
73112;HTU21D;61301;51.956;5.876;2023-06-14T14:32:31;32.27;17.86
73112;HTU21D;61301;51.956;5.876;2023-06-14T14:34:58;32.19;18.15
73112;HTU21D;61301;51.956;5.876;2023-06-14T14:37:23;32.27;18.06
73112;HTU21D;61301;51.956;5.876;2023-06-14T14:39:50;32.12;18.06
73112;HTU21D;61301;51.956;5.876;2023-06-14T14:42:18;32.08;18.15
73112;HTU21D;61301;51.956;5.876;2023-06-14T14:44:45;32.30;18.07
73112;HTU21D;61301;51.956;5.876;2023-06-14T14:47:11;32.49;17.98
73112;HTU21D;61301;51.956;5.876;2023-06-14T14:49:37;32.67;18.06
73112;HTU21D;61301;51.956;5.876;2023-06-14T14:52:03;32.74;18.06
73112;HTU21D;61301;51.956;5.876;2023-06-14T14:54:29;32.93;17.90
73112;HTU21D;61301;51.956;5.876;2023-06-14T14:56:55;33.20;17.77
73112;HTU21D;61301;51.956;5.876;2023-06-14T14:59:21;33.44;17.08
73112;HTU21D;61301;51.956;5.876;2023-06-14T15:01:47;33.45;16.94
73112;HTU21D;61301;51.956;5.876;2023-06-14T15:04:13;33.37;17.09
73112;HTU21D;61301;51.956;5.876;2023-06-14T15:06:39;33.31;17.23
73112;HTU21D;61301;51.956;5.876;2023-06-14T15:09:06;33.17;17.45
73112;HTU21D;61301;51.956;5.876;2023-06-14T15:11:32;33.02;17.54
73112;HTU21D;61301;51.956;5.876;2023-06-14T15:13:58;32.99;17.59
73112;HTU21D;61301;51.956;5.876;2023-06-14T15:16:24;33.03;17.54
73112;HTU21D;61301;51.956;5.876;2023-06-14T15:18:50;33.02;17.53
73112;HTU21D;61301;51.956;5.876;2023-06-14T15:21:16;33.00;17.52
73112;HTU21D;61301;51.956;5.876;2023-06-14T15:23:45;32.97;17.63
73112;HTU21D;61301;51.956;5.876;2023-06-14T15:26:11;32.87;17.80
73112;HTU21D;61301;51.956;5.876;2023-06-14T15:28:37;32.67;17.75
73112;HTU21D;61301;51.956;5.876;2023-06-14T15:31:04;32.59;17.89
73112;HTU21D;61301;51.956;5.876;2023-06-14T15:33:30;32.54;18.23